createdAt,value
2019-03-15T00:01:30.462Z,98118.29
2019-03-15T00:03:58.596Z,98118.31
2019-03-15T00:06:25.508Z,98119.41
2019-03-15T00:08:52.915Z,98122.11
2019-03-15T00:11:19.783Z,98125.65
2019-03-15T00:13:46.553Z,98135.66
2019-03-15T00:16:13.713Z,98138.89
2019-03-15T00:18:40.458Z,98137.28
2019-03-15T00:21:07.374Z,98139.22
2019-03-15T00:23:34.570Z,98138.44
2019-03-15T00:26:01.381Z,98139.22
2019-03-15T00:28:28.156Z,98140.04
2019-03-15T00:30:54.973Z,98153.47
2019-03-15T00:33:21.721Z,98155.07
2019-03-15T00:35:48.665Z,98158.84
2019-03-15T00:38:16.016Z,98163.67
2019-03-15T00:40:43.158Z,98164.19
2019-03-15T00:43:09.904Z,98161.48
2019-03-15T00:45:37.229Z,98162.30
2019-03-15T00:48:06.127Z,98160.95
2019-03-15T00:50:33.299Z,98153.90
2019-03-15T00:53:02.865Z,98150.69
2019-03-15T00:55:30.617Z,98147.20
2019-03-15T00:57:57.390Z,98149.09
2019-03-15T01:00:24.260Z,98145.55
2019-03-15T01:02:51.537Z,98138.80
2019-03-15T01:05:18.352Z,98143.10
2019-03-15T01:07:45.705Z,98140.66
2019-03-15T01:10:12.656Z,98141.50
2019-03-15T01:12:40.568Z,98144.20
2019-03-15T01:15:12.149Z,98141.73
2019-03-15T01:17:39.193Z,98148.73
2019-03-15T01:20:31.229Z,98151.96
2019-03-15T01:22:58.186Z,98154.41
2019-03-15T01:25:24.993Z,98167.36
2019-03-15T01:27:51.816Z,98151.42
2019-03-15T01:30:18.615Z,98156.82
2019-03-15T01:32:46.299Z,98160.31
2019-03-15T01:35:13.659Z,98155.48
2019-03-15T01:37:40.483Z,98162.75
2019-03-15T01:40:07.799Z,98176.75
2019-03-15T01:42:34.739Z,98165.17
2019-03-15T01:45:01.870Z,98163.01
2019-03-15T01:47:28.748Z,98160.81
2019-03-15T01:49:56.021Z,98181.11
2019-03-15T01:52:23.064Z,98170.59
2019-03-15T01:54:50.406Z,98167.11
2019-03-15T01:57:17.870Z,98168.97
2019-03-15T01:59:45.211Z,98161.12
2019-03-15T02:02:12.101Z,98164.02
2019-03-15T02:04:38.921Z,98157.27
2019-03-15T02:07:06.441Z,98154.88
2019-03-15T02:09:33.476Z,98146.79
2019-03-15T02:12:00.363Z,98149.48
2019-03-15T02:14:27.671Z,98147.63
2019-03-15T02:16:54.702Z,98142.73
2019-03-15T02:19:21.869Z,98148.89
2019-03-15T02:21:48.843Z,98155.59
2019-03-15T02:24:15.740Z,98157.19
2019-03-15T02:26:42.747Z,98152.30
2019-03-15T02:29:09.718Z,98149.01
2019-03-15T02:31:36.934Z,98156.27
2019-03-15T02:34:04.373Z,98148.16
2019-03-15T02:36:31.184Z,98144.62
2019-03-15T02:38:58.515Z,98149.77
2019-03-15T02:41:25.306Z,98149.77
2019-03-15T02:43:52.256Z,98138.21
2019-03-15T02:46:19.017Z,98149.06
2019-03-15T02:48:45.788Z,98135.66
2019-03-15T02:51:12.744Z,98150.78
2019-03-15T02:53:39.854Z,98148.89
2019-03-15T02:56:06.604Z,98151.63
2019-03-15T02:58:34.028Z,98158.12
2019-03-15T03:01:03.172Z,98155.14
2019-03-15T03:03:30.233Z,98159.97
2019-03-15T03:05:57.556Z,98159.47
2019-03-15T03:08:24.876Z,98170.34
2019-03-15T03:10:51.672Z,98175.88
2019-03-15T03:13:18.679Z,98179.20
2019-03-15T03:15:45.469Z,98181.14
2019-03-15T03:18:12.320Z,98185.00
2019-03-15T03:20:39.117Z,98193.56
2019-03-15T03:23:06.006Z,98203.38
2019-03-15T03:25:33.155Z,98197.49
2019-03-15T03:28:01.288Z,98192.47
2019-03-15T03:30:28.398Z,98196.77
2019-03-15T03:32:55.628Z,98202.95
2019-03-15T03:35:22.417Z,98183.25
2019-03-15T03:37:49.279Z,98181.57
2019-03-15T03:40:20.380Z,98170.84
2019-03-15T03:42:45.836Z,98178.67
2019-03-15T03:45:13.249Z,98174.06
2019-03-15T03:47:39.963Z,98173.02
2019-03-15T03:50:09.141Z,98168.67
2019-03-15T03:52:36.164Z,98164.61
2019-03-15T03:55:04.631Z,98163.28
2019-03-15T03:57:31.672Z,98156.02
2019-03-15T03:59:58.682Z,98159.75
2019-03-15T04:02:25.809Z,98158.89
2019-03-15T04:04:53.079Z,98158.31
2019-03-15T04:07:20.327Z,98152.84
2019-03-15T04:09:47.265Z,98159.51
2019-03-15T04:12:14.252Z,98155.66
2019-03-15T04:14:41.367Z,98163.66
2019-03-15T04:17:08.269Z,98161.41
2019-03-15T04:19:38.324Z,98162.46
2019-03-15T04:22:05.132Z,98161.05
2019-03-15T04:24:31.971Z,98165.86
2019-03-15T04:26:58.850Z,98166.69
2019-03-15T04:29:25.796Z,98162.64
2019-03-15T04:31:53.182Z,98162.55
2019-03-15T04:34:20.041Z,98153.62
2019-03-15T04:36:47.011Z,98161.66
2019-03-15T04:39:14.228Z,98162.16
2019-03-15T04:41:41.143Z,98162.42
2019-03-15T04:44:07.972Z,98162.42
2019-03-15T04:46:34.722Z,98158.34
2019-03-15T04:49:01.490Z,98162.08
2019-03-15T04:51:28.743Z,98153.20
2019-03-15T04:53:55.813Z,98147.48
2019-03-15T04:56:22.965Z,98142.31
2019-03-15T04:58:49.804Z,98153.05
2019-03-15T05:01:17.006Z,98149.57
2019-03-15T05:03:43.978Z,98151.42
2019-03-15T05:06:11.340Z,98151.42
2019-03-15T05:08:38.499Z,98151.67
2019-03-15T05:11:06.004Z,98162.16
2019-03-15T05:13:33.283Z,98163.77
2019-03-15T05:16:00.517Z,98170.52
2019-03-15T05:18:27.294Z,98168.38
2019-03-15T05:20:54.419Z,98161.97
2019-03-15T05:23:21.520Z,98180.44
2019-03-15T05:25:48.270Z,98170.00
2019-03-15T05:28:15.104Z,98177.67
2019-03-15T05:30:41.874Z,98171.52
2019-03-15T05:33:08.668Z,98167.72
2019-03-15T05:35:35.528Z,98165.95
2019-03-15T05:38:02.711Z,98171.34
2019-03-15T05:40:29.489Z,98163.07
2019-03-15T05:42:56.496Z,98172.46
2019-03-15T05:45:23.800Z,98164.42
2019-03-15T05:47:50.571Z,98162.33
2019-03-15T05:50:17.327Z,98164.24
2019-03-15T05:52:44.210Z,98158.59
2019-03-15T05:55:13.147Z,98160.22
2019-03-15T05:57:39.934Z,98164.06
2019-03-15T06:00:13.447Z,98156.30
2019-03-15T06:02:40.763Z,98163.81
2019-03-15T06:05:09.040Z,98166.53
2019-03-15T06:07:36.209Z,98167.67
2019-03-15T06:10:08.038Z,98165.81
2019-03-15T06:12:35.234Z,98168.51
2019-03-15T06:15:04.787Z,98168.25
2019-03-15T06:17:31.685Z,98165.63
2019-03-15T06:19:58.472Z,98165.14
2019-03-15T06:22:26.454Z,98157.37
2019-03-15T06:24:53.646Z,98150.64
2019-03-15T06:27:23.418Z,98154.17
2019-03-15T06:29:50.187Z,98156.59
2019-03-15T06:32:17.356Z,98160.14
2019-03-15T06:34:44.154Z,98156.94
2019-03-15T06:37:10.945Z,98157.70
2019-03-15T06:39:37.973Z,98149.66
2019-03-15T06:42:04.750Z,98152.11
2019-03-15T06:44:31.502Z,98149.36
2019-03-15T06:47:03.598Z,98152.80
2019-03-15T06:49:30.364Z,98156.34
2019-03-15T06:51:57.218Z,98153.39
2019-03-15T06:54:26.889Z,98158.80
2019-03-15T06:56:53.709Z,98149.59
2019-03-15T06:59:21.159Z,98148.18
2019-03-15T07:01:48.035Z,98150.06
2019-03-15T07:04:14.817Z,98149.27
2019-03-15T07:06:42.484Z,98148.45
2019-03-15T07:09:10.319Z,98147.03
2019-03-15T07:11:37.323Z,98135.13
2019-03-15T07:14:04.438Z,98133.45
2019-03-15T07:16:31.246Z,98132.88
2019-03-15T07:18:58.403Z,98124.47
2019-03-15T07:21:26.268Z,98127.73
2019-03-15T07:23:57.856Z,98124.47
2019-03-15T07:26:25.477Z,98127.94
2019-03-15T07:28:52.475Z,98120.91
2019-03-15T07:31:19.403Z,98110.13
2019-03-15T07:33:46.773Z,98110.58
2019-03-15T07:36:14.056Z,98106.25
2019-03-15T07:38:41.015Z,98099.20
2019-03-15T07:41:07.903Z,98100.02
2019-03-15T07:43:34.814Z,98106.28
2019-03-15T07:46:02.094Z,98103.89
2019-03-15T07:48:29.002Z,98102.82
2019-03-15T07:50:56.138Z,98096.89
2019-03-15T07:53:22.951Z,98097.15
2019-03-15T07:55:52.279Z,98096.31
2019-03-15T07:58:19.068Z,98096.81
2019-03-15T08:00:45.966Z,98095.97
2019-03-15T08:03:13.223Z,98092.97
2019-03-15T08:05:40.004Z,98088.92
2019-03-15T08:08:07.216Z,98079.45
2019-03-15T08:10:34.006Z,98070.52
2019-03-15T08:13:00.802Z,98058.13
2019-03-15T08:15:27.749Z,98059.98
2019-03-15T08:17:54.747Z,98061.55
2019-03-15T08:20:22.554Z,98063.94
2019-03-15T08:22:49.472Z,98059.86
2019-03-15T08:25:16.448Z,98064.86
2019-03-15T08:27:45.271Z,98070.23
2019-03-15T08:30:17.202Z,98063.73
2019-03-15T08:32:45.130Z,98059.72
2019-03-15T08:35:12.756Z,98062.00
2019-03-15T08:37:40.047Z,98061.83
2019-03-15T08:40:09.884Z,98060.23
2019-03-15T08:42:36.938Z,98058.06
2019-03-15T08:45:10.055Z,98064.00
2019-03-15T08:47:37.039Z,98055.56
2019-03-15T08:50:08.774Z,98047.47
2019-03-15T08:52:35.695Z,98048.23
2019-03-15T08:55:06.082Z,98049.73
2019-03-15T08:57:32.983Z,98045.09
2019-03-15T08:59:59.899Z,98049.92
2019-03-15T09:02:27.016Z,98043.16
2019-03-15T09:04:53.865Z,98036.56
2019-03-15T09:07:20.620Z,98038.07
2019-03-15T09:09:48.019Z,98036.91
2019-03-15T09:12:14.795Z,98030.81
2019-03-15T09:14:41.579Z,98027.77
2019-03-15T09:17:08.318Z,98034.81
2019-03-15T09:19:35.115Z,98023.66
2019-03-15T09:22:01.874Z,98024.63
2019-03-15T09:24:28.639Z,98026.35
2019-03-15T09:26:55.408Z,98028.52
2019-03-15T09:29:24.455Z,98032.25
2019-03-15T09:32:04.388Z,98029.25
2019-03-15T09:34:19.800Z,98037.23
2019-03-15T09:36:50.431Z,98031.86
2019-03-15T09:39:15.684Z,98031.19
2019-03-15T09:41:42.913Z,98037.05
2019-03-15T09:44:09.711Z,98041.84
2019-03-15T09:46:36.937Z,98051.18
2019-03-15T09:49:03.947Z,98041.87
2019-03-15T09:51:30.744Z,98042.30
2019-03-15T09:53:57.576Z,98056.70
2019-03-15T09:56:27.755Z,98046.03
2019-03-15T09:58:53.558Z,98040.95
2019-03-15T10:01:34.352Z,98041.92
2019-03-15T10:03:49.501Z,98043.52
2019-03-15T10:06:19.388Z,98036.86
2019-03-15T10:08:45.477Z,98044.36
2019-03-15T10:11:12.650Z,98040.30
2019-03-15T10:13:39.501Z,98048.69
2019-03-15T10:16:06.379Z,98056.19
2019-03-15T10:18:33.550Z,98043.94
2019-03-15T10:21:00.815Z,98048.06
2019-03-15T10:23:27.573Z,98038.05
2019-03-15T10:25:54.442Z,98051.97
2019-03-15T10:28:21.195Z,98045.59
2019-03-15T10:30:48.148Z,98046.66
2019-03-15T10:33:15.226Z,98051.26
2019-03-15T10:35:42.012Z,98053.04
2019-03-15T10:38:09.111Z,98051.69
2019-03-15T10:40:35.984Z,98062.82
2019-03-15T10:43:03.314Z,98066.25
2019-03-15T10:45:30.259Z,98069.88
2019-03-15T10:47:57.158Z,98067.66
2019-03-15T10:50:27.161Z,98067.66
2019-03-15T10:52:54.232Z,98078.73
2019-03-15T10:55:21.301Z,98068.14
2019-03-15T10:57:48.054Z,98070.85
2019-03-15T11:00:17.716Z,98073.50
2019-03-15T11:02:44.944Z,98088.08
2019-03-15T11:05:12.094Z,98082.36
2019-03-15T11:07:39.481Z,98068.19
2019-03-15T11:10:09.153Z,98077.34
2019-03-15T11:12:36.027Z,98081.59
2019-03-15T11:15:06.806Z,98063.01
2019-03-15T11:17:33.637Z,98076.31
2019-03-15T11:20:00.578Z,98090.27
2019-03-15T11:22:27.559Z,98081.50
2019-03-15T11:24:54.593Z,98090.12
2019-03-15T11:27:22.154Z,98082.80
2019-03-15T11:29:48.895Z,98096.75
2019-03-15T11:32:16.133Z,98084.80
2019-03-15T11:34:45.826Z,98104.34
2019-03-15T11:37:15.482Z,98100.03
2019-03-15T11:39:42.273Z,98094.84
2019-03-15T11:42:09.031Z,98105.45
2019-03-15T11:44:35.909Z,98106.23
2019-03-15T11:47:02.936Z,98095.39
2019-03-15T11:49:29.806Z,98092.44
2019-03-15T11:51:56.952Z,98097.38
2019-03-15T11:54:23.776Z,98107.19
2019-03-15T11:56:51.011Z,98106.13
2019-03-15T11:59:18.008Z,98108.06
2019-03-15T12:01:44.780Z,98101.28
2019-03-15T12:04:11.598Z,98101.53
2019-03-15T12:06:38.418Z,98104.15
2019-03-15T12:09:05.949Z,98103.52
2019-03-15T12:11:33.954Z,98100.19
2019-03-15T12:14:01.377Z,98109.42
2019-03-15T12:16:28.628Z,98100.42
2019-03-15T12:18:57.690Z,98106.03
2019-03-15T12:21:25.205Z,98105.41
2019-03-15T12:23:52.080Z,98101.34
2019-03-15T12:26:19.076Z,98094.80
2019-03-15T12:28:46.265Z,98100.47
2019-03-15T12:31:13.352Z,98095.28
2019-03-15T12:33:42.577Z,98094.69
2019-03-15T12:36:09.408Z,98098.36
2019-03-15T12:38:36.405Z,98094.45
2019-03-15T12:41:03.435Z,98095.73
2019-03-15T12:43:30.396Z,98111.92
2019-03-15T12:45:58.113Z,98090.47
2019-03-15T12:48:25.008Z,98098.94
2019-03-15T12:50:52.221Z,98118.94
2019-03-15T12:53:19.424Z,98111.86
2019-03-15T12:55:46.194Z,98130.03
2019-03-15T12:58:13.389Z,98130.75
2019-03-15T13:00:40.600Z,98123.91
2019-03-15T13:03:07.968Z,98117.86
2019-03-15T13:05:35.894Z,98123.61
2019-03-15T13:08:02.824Z,98107.52
2019-03-15T13:10:31.023Z,98133.43
2019-03-15T13:12:57.831Z,98113.27
2019-03-15T13:15:25.290Z,98112.30
2019-03-15T13:17:52.564Z,98120.28
2019-03-15T13:20:19.616Z,98125.88
2019-03-15T13:22:48.912Z,98126.03
2019-03-15T13:25:15.960Z,98128.74
2019-03-15T13:27:43.240Z,98131.31
2019-03-15T13:30:15.484Z,98127.72
2019-03-15T13:32:43.123Z,98141.53
2019-03-15T13:35:11.457Z,98140.95
2019-03-15T13:37:42.280Z,98149.75
2019-03-15T13:40:13.110Z,98143.11
2019-03-15T13:42:40.379Z,98151.09
2019-03-15T13:45:13.044Z,98131.05
2019-03-15T13:47:40.659Z,98129.64
2019-03-15T13:50:17.705Z,98113.19
2019-03-15T13:52:44.989Z,98123.64
2019-03-15T13:55:12.191Z,98132.02
2019-03-15T13:57:39.013Z,98130.66
2019-03-15T14:00:15.938Z,98141.13
2019-03-15T14:02:43.006Z,98143.53
2019-03-15T14:05:10.141Z,98143.20
2019-03-15T14:07:37.263Z,98136.10
2019-03-15T14:10:13.066Z,98166.01
2019-03-15T14:12:39.916Z,98150.61
2019-03-15T14:15:17.111Z,98147.41
2019-03-15T14:17:46.319Z,98146.63
2019-03-15T14:20:14.689Z,98146.72
2019-03-15T14:22:41.877Z,98146.56
2019-03-15T14:25:22.429Z,98156.44
2019-03-15T14:27:49.207Z,98131.55
2019-03-15T14:30:16.012Z,98152.39
2019-03-15T14:32:43.050Z,98141.53
2019-03-15T14:35:10.099Z,98133.69
2019-03-15T14:37:37.304Z,98144.95
2019-03-15T14:40:10.109Z,98128.36
2019-03-15T14:42:37.477Z,98147.59
2019-03-15T14:45:09.451Z,98123.95
2019-03-15T14:47:36.863Z,98145.12
2019-03-15T14:50:09.054Z,98152.78
2019-03-15T14:52:36.018Z,98153.42
2019-03-15T14:55:12.269Z,98158.38
2019-03-15T14:57:51.423Z,98156.84
2019-03-15T15:00:12.061Z,98152.53
2019-03-15T15:02:38.832Z,98156.05
2019-03-15T15:05:09.225Z,98138.00
2019-03-15T15:07:36.125Z,98168.24
2019-03-15T15:10:15.471Z,98158.27
2019-03-15T15:12:42.385Z,98164.90
2019-03-15T15:15:13.246Z,98151.73
2019-03-15T15:17:40.129Z,98148.37
2019-03-15T15:20:09.277Z,98149.34
2019-03-15T15:22:36.184Z,98167.28
2019-03-15T15:25:12.553Z,98166.49
2019-03-15T15:27:39.417Z,98169.84
2019-03-15T15:30:12.376Z,98179.34
2019-03-15T15:32:39.253Z,98171.11
2019-03-15T15:35:08.603Z,98161.06
2019-03-15T15:37:37.910Z,98175.17
2019-03-15T15:40:10.072Z,98160.34
2019-03-15T15:42:37.463Z,98153.56
2019-03-15T15:45:07.698Z,98160.34
2019-03-15T15:47:35.280Z,98160.83
2019-03-15T15:50:04.657Z,98160.34
2019-03-15T15:52:31.453Z,98169.12
2019-03-15T15:54:58.676Z,98172.70
2019-03-15T15:57:25.769Z,98187.38
2019-03-15T15:59:52.508Z,98177.47
2019-03-15T16:02:19.306Z,98172.91
2019-03-15T16:04:46.190Z,98179.16
2019-03-15T16:07:13.603Z,98182.41
2019-03-15T16:09:40.474Z,98164.54
2019-03-15T16:12:07.442Z,98162.70
2019-03-15T16:14:34.359Z,98170.05
2019-03-15T16:17:01.151Z,98169.81
2019-03-15T16:19:30.172Z,98182.80
2019-03-15T16:21:57.507Z,98182.80
2019-03-15T16:24:26.210Z,98181.44
2019-03-15T16:26:52.999Z,98186.95
2019-03-15T16:29:19.887Z,98181.53
2019-03-15T16:31:46.655Z,98191.75
2019-03-15T16:34:13.933Z,98189.28
2019-03-15T16:36:40.860Z,98190.15
2019-03-15T16:39:07.921Z,98190.25
2019-03-15T16:41:35.241Z,98189.47
2019-03-15T16:44:02.275Z,98188.83
2019-03-15T16:46:29.180Z,98193.30
2019-03-15T16:48:56.035Z,98207.59
2019-03-15T16:51:22.854Z,98209.13
2019-03-15T16:53:50.018Z,98211.50
2019-03-15T16:56:20.114Z,98205.35
2019-03-15T16:58:46.805Z,98214.45
2019-03-15T17:01:13.984Z,98212.68
2019-03-15T17:03:40.876Z,98202.64
2019-03-15T17:06:07.632Z,98219.16
2019-03-15T17:08:34.851Z,98232.97
2019-03-15T17:11:01.733Z,98224.64
2019-03-15T17:13:28.986Z,98222.80
2019-03-15T17:15:56.296Z,98228.23
2019-03-15T17:18:23.148Z,98212.19
2019-03-15T17:20:49.908Z,98220.86
2019-03-15T17:23:16.711Z,98225.55
2019-03-15T17:25:43.749Z,98221.48
2019-03-15T17:28:10.651Z,98246.52
2019-03-15T17:30:39.485Z,98230.55
2019-03-15T17:33:06.491Z,98240.83
2019-03-15T17:35:33.403Z,98238.69
2019-03-15T17:38:00.318Z,98250.16
2019-03-15T17:40:27.491Z,98236.59
2019-03-15T17:42:55.409Z,98233.02
2019-03-15T17:45:22.403Z,98230.48
2019-03-15T17:47:51.393Z,98239.73
2019-03-15T17:50:21.828Z,98226.97
2019-03-15T17:52:48.718Z,98237.27
2019-03-15T17:55:16.540Z,98249.96
2019-03-15T17:57:45.733Z,98249.96
2019-03-15T18:00:36.711Z,98255.14
2019-03-15T18:03:19.234Z,98256.98
2019-03-15T18:05:34.467Z,98255.55
2019-03-15T18:08:01.587Z,98257.38
2019-03-15T18:10:28.597Z,98259.80
2019-03-15T18:12:55.621Z,98251.66
2019-03-15T18:15:22.626Z,98259.23
2019-03-15T18:17:49.739Z,98250.30
2019-03-15T18:20:17.060Z,98255.55
2019-03-15T18:22:44.553Z,98254.52
2019-03-15T18:25:12.298Z,98256.98
2019-03-15T18:27:39.598Z,98259.61
2019-03-15T18:30:15.929Z,98256.36
2019-03-15T18:32:42.954Z,98251.42
2019-03-15T18:35:10.439Z,98253.75
2019-03-15T18:37:38.045Z,98258.11
2019-03-15T18:40:14.245Z,98251.66
2019-03-15T18:42:41.365Z,98260.67
2019-03-15T18:45:15.778Z,98260.53
2019-03-15T18:47:42.606Z,98252.15
2019-03-15T18:50:20.287Z,98261.94
2019-03-15T18:52:47.551Z,98255.16
2019-03-15T18:55:14.512Z,98258.36
2019-03-15T18:57:41.356Z,98246.39
2019-03-15T19:00:13.615Z,98257.58
2019-03-15T19:02:40.397Z,98266.01
2019-03-15T19:05:08.378Z,98251.91
2019-03-15T19:07:35.332Z,98284.21
2019-03-15T19:10:07.079Z,98283.88
2019-03-15T19:12:34.310Z,98277.97
2019-03-15T19:15:01.269Z,98295.36
2019-03-15T19:17:28.395Z,98282.37
2019-03-15T19:19:55.313Z,98297.58
2019-03-15T19:22:22.441Z,98302.71
2019-03-15T19:24:49.767Z,98294.25
2019-03-15T19:27:17.031Z,98292.10
2019-03-15T19:29:53.589Z,98281.98
2019-03-15T19:32:13.222Z,98292.34
2019-03-15T19:34:40.035Z,98294.81
2019-03-15T19:37:06.884Z,98300.40
2019-03-15T19:39:33.702Z,98304.80
2019-03-15T19:42:02.886Z,98302.71
2019-03-15T19:44:29.675Z,98297.67
2019-03-15T19:46:56.625Z,98322.62
2019-03-15T19:49:25.244Z,98307.32
2019-03-15T19:51:52.119Z,98301.65
2019-03-15T19:54:19.380Z,98331.81
2019-03-15T19:56:46.713Z,98334.15
2019-03-15T19:59:16.482Z,98315.32
2019-03-15T20:01:43.552Z,98347.09
2019-03-15T20:04:10.455Z,98315.41
2019-03-15T20:06:37.194Z,98325.20
2019-03-15T20:09:06.135Z,98317.30
2019-03-15T20:11:32.916Z,98339.00
2019-03-15T20:13:59.720Z,98324.17
2019-03-15T20:16:26.461Z,98325.28
2019-03-15T20:18:53.331Z,98324.90
2019-03-15T20:21:20.587Z,98315.41
2019-03-15T20:23:47.503Z,98333.52
2019-03-15T20:26:14.300Z,98343.02
2019-03-15T20:28:41.172Z,98340.30
2019-03-15T20:31:07.910Z,98343.56
2019-03-15T20:33:35.285Z,98343.31
2019-03-15T20:36:02.758Z,98336.23
2019-03-15T20:38:29.530Z,98341.42
2019-03-15T20:40:56.482Z,98330.13
2019-03-15T20:43:23.293Z,98344.27
2019-03-15T20:45:50.115Z,98343.20
2019-03-15T20:48:17.521Z,98350.23
2019-03-15T20:50:47.003Z,98343.07
2019-03-15T20:53:13.249Z,98349.31
2019-03-15T20:55:40.656Z,98368.54
2019-03-15T20:58:07.605Z,98362.98
2019-03-15T21:00:36.118Z,98356.74
2019-03-15T21:03:03.380Z,98375.19
2019-03-15T21:05:31.031Z,98379.42
2019-03-15T21:07:57.983Z,98374.73
2019-03-15T21:10:24.746Z,98407.41
2019-03-15T21:12:52.090Z,98374.55
2019-03-15T21:15:19.553Z,98384.05
2019-03-15T21:17:46.774Z,98373.81
2019-03-15T21:20:15.526Z,98387.02
2019-03-15T21:22:42.801Z,98373.51
2019-03-15T21:25:09.863Z,98381.34
2019-03-15T21:27:37.001Z,98395.21
2019-03-15T21:30:18.887Z,98373.75
2019-03-15T21:32:46.149Z,98404.41
2019-03-15T21:35:13.084Z,98399.85
2019-03-15T21:37:40.075Z,98402.31
2019-03-15T21:40:21.031Z,98424.44
2019-03-15T21:42:48.172Z,98414.78
2019-03-15T21:45:15.150Z,98431.92
2019-03-15T21:47:42.004Z,98430.94
2019-03-15T21:50:21.007Z,98433.00
2019-03-15T21:52:47.809Z,98431.72
2019-03-15T21:55:14.990Z,98428.27
2019-03-15T21:57:42.007Z,98428.27
2019-03-15T22:00:16.733Z,98441.58
2019-03-15T22:02:43.924Z,98435.34
2019-03-15T22:05:11.000Z,98454.33
2019-03-15T22:07:37.979Z,98444.79
2019-03-15T22:10:13.958Z,98452.11
2019-03-15T22:12:41.546Z,98445.90
2019-03-15T22:15:10.681Z,98462.45
2019-03-15T22:17:37.647Z,98446.19
2019-03-15T22:20:17.696Z,98465.73
2019-03-15T22:22:44.481Z,98474.16
2019-03-15T22:25:11.915Z,98464.92
2019-03-15T22:27:38.927Z,98463.56
2019-03-15T22:30:09.727Z,98471.16
2019-03-15T22:32:37.254Z,98476.34
2019-03-15T22:35:05.431Z,98471.45
2019-03-15T22:37:33.063Z,98464.47
2019-03-15T22:40:00.160Z,98456.38
2019-03-15T22:42:27.281Z,98450.71
2019-03-15T22:44:54.160Z,98460.16
2019-03-15T22:47:21.002Z,98456.99
2019-03-15T22:49:47.921Z,98467.30
2019-03-15T22:52:14.710Z,98448.86
2019-03-15T22:54:41.649Z,98457.56
2019-03-15T22:57:08.628Z,98463.27
2019-03-15T22:59:36.187Z,98456.25
2019-03-15T23:02:04.265Z,98460.88
2019-03-15T23:04:31.009Z,98461.67
2019-03-15T23:06:57.979Z,98467.34
2019-03-15T23:09:24.822Z,98474.36
2019-03-15T23:11:52.242Z,98470.05
2019-03-15T23:14:19.024Z,98490.38
2019-03-15T23:16:45.919Z,98476.78
2019-03-15T23:19:13.003Z,98485.17
2019-03-15T23:21:40.225Z,98474.50
2019-03-15T23:24:07.702Z,98472.60
2019-03-15T23:26:34.882Z,98480.53
2019-03-15T23:29:01.772Z,98473.58
2019-03-15T23:31:42.724Z,98480.40
2019-03-15T23:33:58.462Z,98481.75
2019-03-15T23:36:26.416Z,98478.80
2019-03-15T23:38:53.846Z,98479.61
2019-03-15T23:41:20.655Z,98473.08
2019-03-15T23:43:47.578Z,98478.50
2019-03-15T23:46:14.822Z,98486.89
2019-03-15T23:48:41.998Z,98488.53
2019-03-15T23:51:08.734Z,98478.01
2019-03-15T23:53:36.267Z,98475.59
2019-03-15T23:56:03.257Z,98480.47
2019-03-15T23:58:30.010Z,98471.27
